Time,TemperatureF,DewpointF,PressureIn,WindDirection,WindDirectionDegrees,WindSpeedMPH,WindSpeedGustMPH,Humidity,HourlyPrecipIn,Conditions,Clouds,dailyrainin,SoftwareType,DateUTC
2013-12-05 00:01:00,50.7,46.4,29.84,SSE,165,0.0,5.0,85,0.00,,,0.00,meteohub,2013-12-05 05:01:00,
2013-12-05 00:02:00,50.7,46.4,29.84,SW,229,5.0,5.0,85,0.00,,,0.00,meteohub,2013-12-05 05:02:00,
2013-12-05 00:03:00,51.3,46.6,29.85,SW,221,0.0,5.0,84,0.00,,,0.00,meteohub,2013-12-05 05:03:00,
2013-12-05 00:04:00,51.4,46.8,29.85,SW,221,0.0,5.0,84,0.00,,,0.00,meteohub,2013-12-05 05:04:00,
2013-12-05 00:10:00,51.6,46.2,29.85,SW,220,0.0,7.0,82,0.00,,,0.00,meteohub,2013-12-05 05:10:00,
2013-12-05 00:15:00,51.4,46.2,29.85,SW,220,0.0,7.0,82,0.00,,,0.00,meteohub,2013-12-05 05:15:00,
2013-12-05 00:20:00,51.1,46.0,29.84,SW,220,0.0,4.0,83,0.00,,,0.00,meteohub,2013-12-05 05:20:00,
2013-12-05 00:26:00,50.5,45.5,29.84,SW,220,0.0,3.0,83,0.00,,,0.00,meteohub,2013-12-05 05:26:00,
2013-12-05 00:31:00,50.0,45.3,29.84,SW,220,0.0,3.0,84,0.00,,,0.00,meteohub,2013-12-05 05:31:00,
2013-12-05 00:36:00,49.8,45.5,29.84,SW,220,0.0,3.0,85,0.00,,,0.00,meteohub,2013-12-05 05:36:00,
2013-12-05 00:41:00,49.8,45.5,29.83,SW,220,0.0,3.0,85,0.00,,,0.00,meteohub,2013-12-05 05:41:00,
2013-12-05 00:47:00,49.6,45.7,29.82,SW,220,0.0,3.0,86,0.00,,,0.00,meteohub,2013-12-05 05:47:00,
2013-12-05 00:52:00,49.6,45.7,29.83,SW,220,1.0,3.0,86,0.00,,,0.00,meteohub,2013-12-05 05:52:00,
2013-12-05 00:57:00,49.5,45.5,29.83,SW,225,1.0,3.0,86,0.00,,,0.00,meteohub,2013-12-05 05:57:00,
2013-12-05 01:02:00,49.5,45.5,29.83,SW,225,0.0,3.0,86,0.00,,,0.00,meteohub,2013-12-05 06:02:00,
2013-12-05 01:07:00,49.6,45.9,29.83,South,189,0.0,3.0,87,0.00,,,0.00,meteohub,2013-12-05 06:07:00,
2013-12-05 01:12:00,50.7,46.9,29.82,SW,217,5.0,5.0,87,0.00,,,0.00,meteohub,2013-12-05 06:12:00,
2013-12-05 01:17:00,52.0,47.7,29.82,SW,232,3.0,8.0,85,0.00,,,0.00,meteohub,2013-12-05 06:17:00,
2013-12-05 01:23:00,52.5,47.5,29.82,SSW,213,5.0,8.0,83,0.00,,,0.00,meteohub,2013-12-05 06:23:00,
2013-12-05 01:28:00,52.9,47.8,29.81,SW,227,2.0,6.0,83,0.00,,,0.00,meteohub,2013-12-05 06:28:00,
2013-12-05 01:33:00,53.1,48.0,29.81,SSW,206,3.0,6.0,83,0.00,,,0.00,meteohub,2013-12-05 06:33:00,
2013-12-05 01:39:00,53.2,47.5,29.81,SW,234,2.0,6.0,81,0.00,,,0.00,meteohub,2013-12-05 06:39:00,
2013-12-05 01:44:00,53.2,47.5,29.81,WSW,252,0.0,6.0,81,0.00,,,0.00,meteohub,2013-12-05 06:44:00,
2013-12-05 01:49:00,53.4,47.7,29.82,SW,235,0.0,6.0,81,0.00,,,0.00,meteohub,2013-12-05 06:49:00,
2013-12-05 01:55:00,52.9,47.3,29.82,SW,216,0.0,7.0,81,0.00,,,0.00,meteohub,2013-12-05 06:55:00,
2013-12-05 02:00:00,52.2,47.1,29.83,SW,216,0.0,7.0,83,0.00,,,0.00,meteohub,2013-12-05 07:00:00,
2013-12-05 02:05:00,52.0,47.3,29.83,WSW,246,3.0,7.0,84,0.00,,,0.00,meteohub,2013-12-05 07:05:00,
2013-12-05 02:10:00,52.7,48.4,29.83,SSW,200,4.0,5.0,85,0.00,,,0.00,meteohub,2013-12-05 07:10:00,
2013-12-05 02:15:00,53.4,48.4,29.83,WSW,238,0.0,6.0,83,0.00,,,0.00,meteohub,2013-12-05 07:15:00,
2013-12-05 02:20:00,53.4,48.4,29.82,SSW,207,2.0,8.0,83,0.00,,,0.00,meteohub,2013-12-05 07:20:00,
2013-12-05 02:26:00,53.8,48.7,29.82,SW,219,6.0,6.0,83,0.00,,,0.00,meteohub,2013-12-05 07:26:00,
2013-12-05 02:31:00,54.5,49.1,29.82,SSW,192,0.0,9.0,82,0.00,,,0.00,meteohub,2013-12-05 07:31:00,
2013-12-05 02:36:00,55.0,49.3,29.82,SW,215,1.0,12.0,81,0.00,,,0.00,meteohub,2013-12-05 07:36:00,
2013-12-05 02:41:00,55.6,49.8,29.82,SW,220,5.0,12.0,81,0.00,,,0.00,meteohub,2013-12-05 07:41:00,
2013-12-05 02:47:00,55.8,49.6,29.82,SW,220,5.0,12.0,80,0.00,,,0.00,meteohub,2013-12-05 07:47:00,
2013-12-05 02:52:00,55.9,49.5,29.81,SSW,194,7.0,14.0,79,0.00,,,0.00,meteohub,2013-12-05 07:52:00,
2013-12-05 02:57:00,55.9,49.5,29.81,WSW,240,8.0,14.0,79,0.00,,,0.00,meteohub,2013-12-05 07:57:00,
2013-12-05 03:02:00,56.1,50.0,29.81,SW,219,5.0,14.0,80,0.00,,,0.00,meteohub,2013-12-05 08:02:00,
2013-12-05 03:08:00,56.1,50.0,29.81,SSW,197,8.0,12.0,80,0.00,,,0.00,meteohub,2013-12-05 08:08:00,
2013-12-05 03:13:00,56.1,50.0,29.81,SW,229,6.0,12.0,80,0.00,,,0.00,meteohub,2013-12-05 08:13:00,
2013-12-05 03:18:00,56.5,50.4,29.81,SSW,213,2.0,12.0,80,0.00,,,0.00,meteohub,2013-12-05 08:18:00,
2013-12-05 03:23:00,56.5,50.4,29.81,SW,225,1.0,12.0,80,0.00,,,0.00,meteohub,2013-12-05 08:23:00,
2013-12-05 03:29:00,56.5,50.4,29.81,SW,217,6.0,10.0,80,0.00,,,0.00,meteohub,2013-12-05 08:29:00,
2013-12-05 03:34:00,56.5,50.4,29.81,SW,217,4.0,10.0,80,0.00,,,0.00,meteohub,2013-12-05 08:34:00,
2013-12-05 03:39:00,56.3,50.2,29.81,SSW,205,6.0,10.0,80,0.00,,,0.00,meteohub,2013-12-05 08:39:00,
2013-12-05 03:44:00,56.1,50.0,29.81,SW,227,5.0,10.0,80,0.00,,,0.00,meteohub,2013-12-05 08:44:00,
2013-12-05 03:50:00,56.1,50.4,29.81,SW,223,0.0,9.0,81,0.00,,,0.00,meteohub,2013-12-05 08:50:00,
2013-12-05 03:55:00,56.1,50.4,29.81,SW,219,4.0,11.0,81,0.00,,,0.00,meteohub,2013-12-05 08:55:00,
2013-12-05 04:00:00,55.9,50.2,29.81,SW,230,0.0,11.0,81,0.00,,,0.00,meteohub,2013-12-05 09:00:00,
2013-12-05 04:05:00,55.8,50.0,29.81,SW,225,0.0,8.0,81,0.00,,,0.00,meteohub,2013-12-05 09:05:00,
2013-12-05 04:11:00,55.8,50.4,29.81,SW,215,6.0,8.0,82,0.00,,,0.00,meteohub,2013-12-05 09:11:00,
2013-12-05 04:16:00,55.8,50.0,29.81,SSW,212,0.0,9.0,81,0.00,,,0.00,meteohub,2013-12-05 09:16:00,
2013-12-05 04:21:00,55.6,50.2,29.81,SW,232,1.0,9.0,82,0.00,,,0.00,meteohub,2013-12-05 09:21:00,
2013-12-05 04:26:00,55.4,50.0,29.81,SW,225,5.0,9.0,82,0.00,,,0.00,meteohub,2013-12-05 09:26:00,
2013-12-05 04:32:00,55.4,50.4,29.81,SW,227,3.0,8.0,83,0.00,,,0.00,meteohub,2013-12-05 09:32:00,
2013-12-05 04:37:00,55.6,50.5,29.81,SW,224,8.0,8.0,83,0.00,,,0.00,meteohub,2013-12-05 09:37:00,
2013-12-05 04:42:00,55.4,50.4,29.81,SW,225,0.0,8.0,83,0.00,,,0.00,meteohub,2013-12-05 09:42:00,
2013-12-05 04:47:00,55.6,50.5,29.81,SW,222,2.0,8.0,83,0.00,,,0.00,meteohub,2013-12-05 09:47:00,
2013-12-05 04:52:00,55.4,50.4,29.81,SSW,202,3.0,8.0,83,0.00,,,0.00,meteohub,2013-12-05 09:52:00,
2013-12-05 04:57:00,55.2,50.5,29.81,SW,228,0.0,6.0,84,0.00,,,0.00,meteohub,2013-12-05 09:57:00,
2013-12-05 05:02:00,55.0,50.4,29.81,SW,233,4.0,6.0,84,0.00,,,0.00,meteohub,2013-12-05 10:02:00,
2013-12-05 05:07:00,55.2,50.5,29.81,SW,219,6.0,8.0,84,0.00,,,0.00,meteohub,2013-12-05 10:07:00,
2013-12-05 05:12:00,55.6,50.9,29.81,SW,217,5.0,8.0,84,0.00,,,0.00,meteohub,2013-12-05 10:12:00,
2013-12-05 05:17:00,55.4,50.7,29.80,SW,231,3.0,8.0,84,0.00,,,0.00,meteohub,2013-12-05 10:17:00,
2013-12-05 05:22:00,55.8,51.3,29.80,WSW,242,2.0,10.0,85,0.00,,,0.00,meteohub,2013-12-05 10:22:00,
2013-12-05 05:28:00,55.9,51.3,29.80,South,170,8.0,10.0,84,0.00,,,0.00,meteohub,2013-12-05 10:28:00,
2013-12-05 05:33:00,56.1,51.4,29.80,SW,225,7.0,10.0,84,0.00,,,0.00,meteohub,2013-12-05 10:33:00,
2013-12-05 05:38:00,56.1,51.4,29.80,SSW,209,7.0,9.0,84,0.00,,,0.00,meteohub,2013-12-05 10:38:00,
2013-12-05 05:44:00,56.5,51.6,29.80,WSW,239,5.0,9.0,84,0.00,,,0.00,meteohub,2013-12-05 10:44:00,
2013-12-05 05:49:00,56.5,51.6,29.81,SW,225,6.0,9.0,84,0.00,,,0.00,meteohub,2013-12-05 10:49:00,
2013-12-05 05:54:00,56.5,51.6,29.80,SSW,202,0.0,10.0,84,0.00,,,0.00,meteohub,2013-12-05 10:54:00,
2013-12-05 06:00:00,56.3,51.8,29.81,WSW,257,0.0,10.0,85,0.00,,,0.00,meteohub,2013-12-05 11:00:00,
2013-12-05 06:05:00,56.1,51.6,29.80,SSW,213,3.0,10.0,85,0.00,,,0.00,meteohub,2013-12-05 11:05:00,
2013-12-05 06:10:00,56.1,51.6,29.80,SW,224,3.0,7.0,85,0.00,,,0.00,meteohub,2013-12-05 11:10:00,
2013-12-05 06:16:00,56.1,51.6,29.81,SW,230,2.0,7.0,85,0.00,,,0.00,meteohub,2013-12-05 11:16:00,
2013-12-05 06:21:00,56.1,51.6,29.81,WSW,238,0.0,8.0,85,0.00,,,0.00,meteohub,2013-12-05 11:21:00,
2013-12-05 06:26:00,55.9,51.4,29.81,WSW,238,0.0,8.0,85,0.00,,,0.00,meteohub,2013-12-05 11:26:00,
2013-12-05 06:31:00,55.6,51.1,29.81,WSW,238,0.0,8.0,85,0.00,,,0.00,meteohub,2013-12-05 11:31:00,
2013-12-05 06:36:00,55.2,51.1,29.81,WSW,238,0.0,3.0,86,0.00,,,0.00,meteohub,2013-12-05 11:36:00,
2013-12-05 06:42:00,54.9,51.1,29.81,WSW,238,0.0,3.0,87,0.00,,,0.00,meteohub,2013-12-05 11:42:00,
2013-12-05 06:47:00,54.7,51.3,29.81,WSW,240,0.0,3.0,88,0.00,,,0.00,meteohub,2013-12-05 11:47:00,
2013-12-05 06:52:00,54.7,50.9,29.82,SW,229,0.0,3.0,87,0.00,,,0.00,meteohub,2013-12-05 11:52:00,
2013-12-05 06:57:00,54.5,51.1,29.82,SW,229,0.0,4.0,88,0.00,,,0.00,meteohub,2013-12-05 11:57:00,
2013-12-05 07:02:00,54.1,50.7,29.82,SW,229,0.0,4.0,88,0.00,,,0.00,meteohub,2013-12-05 12:02:00,
2013-12-05 07:08:00,54.0,50.5,29.82,SW,229,0.0,3.0,88,0.00,,,0.00,meteohub,2013-12-05 12:08:00,
2013-12-05 07:13:00,53.4,50.0,29.82,SW,229,0.0,2.0,88,0.00,,,0.00,meteohub,2013-12-05 12:13:00,
2013-12-05 07:18:00,52.9,49.5,29.82,SW,229,0.0,2.0,88,0.00,,,0.00,meteohub,2013-12-05 12:18:00,
2013-12-05 07:24:00,52.3,49.3,29.82,SW,229,0.0,2.0,89,0.00,,,0.00,meteohub,2013-12-05 12:24:00,
2013-12-05 07:29:00,52.5,50.2,29.82,SW,230,0.0,1.0,92,0.00,,,0.00,meteohub,2013-12-05 12:29:00,
2013-12-05 07:34:00,52.9,50.5,29.82,SW,229,1.0,5.0,92,0.00,,,0.00,meteohub,2013-12-05 12:34:00,
2013-12-05 07:40:00,53.4,51.1,29.82,SSW,213,2.0,5.0,92,0.00,,,0.00,meteohub,2013-12-05 12:40:00,
2013-12-05 07:45:00,54.0,51.6,29.82,SW,217,0.0,6.0,92,0.00,,,0.00,meteohub,2013-12-05 12:45:00,
2013-12-05 07:50:00,54.1,51.3,29.82,SW,231,0.0,6.0,90,0.00,,,0.00,meteohub,2013-12-05 12:50:00,
2013-12-05 07:56:00,54.1,51.3,29.83,West,260,0.0,6.0,90,0.00,,,0.00,meteohub,2013-12-05 12:56:00,
2013-12-05 08:01:00,54.3,51.8,29.83,SW,236,0.0,5.0,91,0.00,,,0.00,meteohub,2013-12-05 13:01:00,
2013-12-05 08:06:00,54.5,51.6,29.83,SW,221,0.0,4.0,90,0.00,,,0.00,meteohub,2013-12-05 13:06:00,
2013-12-05 08:12:00,54.7,52.2,29.82,SSW,211,0.0,4.0,91,0.00,,,0.00,meteohub,2013-12-05 13:12:00,
2013-12-05 08:17:00,54.5,51.6,29.82,SSW,211,0.0,2.0,90,0.00,,,0.00,meteohub,2013-12-05 13:17:00,
2013-12-05 08:22:00,54.3,51.8,29.83,SW,221,0.0,2.0,91,0.00,,,0.00,meteohub,2013-12-05 13:22:00,
2013-12-05 08:27:00,54.1,51.3,29.83,SW,220,0.0,5.0,90,0.00,,,0.00,meteohub,2013-12-05 13:27:00,
2013-12-05 08:32:00,54.1,51.6,29.83,SW,220,0.0,5.0,91,0.00,,,0.00,meteohub,2013-12-05 13:32:00,
2013-12-05 08:37:00,54.1,51.6,29.83,SW,220,0.0,5.0,91,0.00,,,0.00,meteohub,2013-12-05 13:37:00,
2013-12-05 08:42:00,54.0,51.1,29.83,SW,220,0.0,1.0,90,0.00,,,0.00,meteohub,2013-12-05 13:42:00,
2013-12-05 08:47:00,53.8,50.9,29.83,SW,222,0.0,5.0,90,0.00,,,0.00,meteohub,2013-12-05 13:47:00,
2013-12-05 08:52:00,53.8,51.3,29.84,SW,222,1.0,5.0,91,0.00,,,0.00,meteohub,2013-12-05 13:52:00,
2013-12-05 08:57:00,54.1,51.8,29.83,SW,222,3.0,5.0,92,0.00,,,0.00,meteohub,2013-12-05 13:57:00,
2013-12-05 09:02:00,54.5,52.2,29.84,SW,222,0.0,5.0,92,0.00,,,0.00,meteohub,2013-12-05 14:02:00,
2013-12-05 09:07:00,54.7,52.2,29.84,SW,222,0.0,5.0,91,0.00,,,0.00,meteohub,2013-12-05 14:07:00,
2013-12-05 09:12:00,54.7,52.2,29.84,SW,222,0.0,5.0,91,0.00,,,0.00,meteohub,2013-12-05 14:12:00,
2013-12-05 09:17:00,54.9,52.3,29.84,SSW,210,0.0,3.0,91,0.00,,,0.00,meteohub,2013-12-05 14:17:00,
2013-12-05 09:22:00,55.2,52.7,29.84,SW,223,5.0,5.0,91,0.00,,,0.00,meteohub,2013-12-05 14:22:00,
2013-12-05 09:27:00,55.9,53.1,29.85,SW,217,0.0,7.0,90,0.00,,,0.00,meteohub,2013-12-05 14:27:00,
2013-12-05 09:32:00,56.3,53.4,29.85,SSW,196,4.0,7.0,90,0.00,,,0.00,meteohub,2013-12-05 14:32:00,
2013-12-05 09:37:00,56.5,53.2,29.85,SSW,211,4.0,8.0,89,0.00,,,0.00,meteohub,2013-12-05 14:37:00,
2013-12-05 09:42:00,56.8,53.6,29.85,SW,216,0.0,8.0,89,0.00,,,0.00,meteohub,2013-12-05 14:42:00,
2013-12-05 09:47:00,56.8,53.2,29.85,WSW,242,0.0,8.0,88,0.00,,,0.00,meteohub,2013-12-05 14:47:00,
2013-12-05 09:52:00,57.0,53.4,29.85,SW,215,1.0,7.0,88,0.00,,,0.00,meteohub,2013-12-05 14:52:00,
2013-12-05 09:57:00,56.8,53.2,29.86,SW,234,0.0,6.0,88,0.00,,,0.00,meteohub,2013-12-05 14:57:00,
2013-12-05 10:02:00,56.8,53.6,29.86,SW,228,0.0,6.0,89,0.00,,,0.00,meteohub,2013-12-05 15:02:00,
2013-12-05 10:08:00,56.7,53.4,29.86,SW,228,0.0,5.0,89,0.00,,,0.00,meteohub,2013-12-05 15:08:00,
2013-12-05 10:13:00,56.7,53.4,29.85,SW,228,0.0,4.0,89,0.00,,,0.00,meteohub,2013-12-05 15:13:00,
2013-12-05 10:18:00,56.8,53.6,29.85,SW,228,2.0,4.0,89,0.00,,,0.00,meteohub,2013-12-05 15:18:00,
2013-12-05 10:24:00,56.8,53.6,29.85,SW,228,0.0,3.0,89,0.00,,,0.00,meteohub,2013-12-05 15:24:00,
2013-12-05 10:29:00,56.8,53.6,29.85,SW,228,3.0,3.0,89,0.00,,,0.00,meteohub,2013-12-05 15:29:00,
2013-12-05 10:34:00,57.4,54.1,29.85,SW,228,0.0,3.0,89,0.00,,,0.00,meteohub,2013-12-05 15:34:00,
2013-12-05 10:40:00,57.7,54.5,29.86,SW,228,0.0,4.0,89,0.00,,,0.00,meteohub,2013-12-05 15:40:00,
2013-12-05 10:45:00,57.7,54.1,29.86,NW,311,0.0,4.0,88,0.00,,,0.00,meteohub,2013-12-05 15:45:00,
2013-12-05 10:50:00,57.7,54.1,29.86,NW,309,0.0,2.0,88,0.00,,,0.00,meteohub,2013-12-05 15:50:00,
2013-12-05 10:55:00,57.7,54.0,29.86,WNW,302,0.0,3.0,87,0.00,,,0.00,meteohub,2013-12-05 15:55:00,
2013-12-05 11:01:00,57.7,53.6,29.86,NW,325,2.0,3.0,86,0.00,,,0.00,meteohub,2013-12-05 16:01:00,
2013-12-05 11:06:00,57.6,53.1,29.86,NW,325,0.0,3.0,85,0.00,,,0.00,meteohub,2013-12-05 16:06:00,
2013-12-05 11:11:00,57.6,53.1,29.86,NW,307,0.0,3.0,85,0.00,,,0.00,meteohub,2013-12-05 16:11:00,
2013-12-05 11:17:00,57.4,52.9,29.86,NW,307,0.0,3.0,85,0.00,,,0.00,meteohub,2013-12-05 16:17:00,
2013-12-05 11:22:00,57.4,52.5,29.86,WNW,288,0.0,3.0,84,0.00,,,0.00,meteohub,2013-12-05 16:22:00,
2013-12-05 11:27:00,57.2,52.3,29.86,NNW,331,1.0,3.0,84,0.00,,,0.00,meteohub,2013-12-05 16:27:00,
2013-12-05 11:32:00,57.0,52.2,29.85,NNW,331,0.0,3.0,84,0.00,,,0.00,meteohub,2013-12-05 16:32:00,
2013-12-05 11:38:00,56.8,51.8,29.85,North,355,0.0,4.0,83,0.00,,,0.00,meteohub,2013-12-05 16:38:00,
2013-12-05 11:43:00,56.8,52.0,29.86,North,355,0.0,4.0,84,0.00,,,0.00,meteohub,2013-12-05 16:43:00,
2013-12-05 11:48:00,56.8,52.0,29.86,North,355,0.0,4.0,84,0.00,,,0.00,meteohub,2013-12-05 16:48:00,
2013-12-05 11:53:00,56.8,52.0,29.86,SSW,203,0.0,1.0,84,0.00,,,0.00,meteohub,2013-12-05 16:53:00,
2013-12-05 11:59:00,56.8,51.8,29.86,NW,311,0.0,2.0,83,0.00,,,0.00,meteohub,2013-12-05 16:59:00,
2013-12-05 12:04:00,56.7,51.3,29.86,West,275,0.0,9.0,82,0.00,,,0.00,meteohub,2013-12-05 17:04:00,
2013-12-05 12:10:00,56.3,51.4,29.86,North,355,0.0,9.0,84,0.00,,,0.00,meteohub,2013-12-05 17:10:00,
2013-12-05 12:15:00,56.1,51.6,29.86,WNW,283,3.0,9.0,85,0.00,,,0.00,meteohub,2013-12-05 17:15:00,
2013-12-05 12:20:00,55.9,51.3,29.87,WSW,248,1.0,10.0,84,0.00,,,0.00,meteohub,2013-12-05 17:20:00,
2013-12-05 12:25:00,55.9,51.4,29.87,NW,308,0.0,10.0,85,0.00,,,0.00,meteohub,2013-12-05 17:25:00,
2013-12-05 12:31:00,55.6,50.9,29.87,North,355,0.0,10.0,84,0.00,,,0.00,meteohub,2013-12-05 17:31:00,
2013-12-05 12:36:00,55.0,50.4,29.86,NE,43,0.0,7.0,84,0.00,,,0.00,meteohub,2013-12-05 17:36:00,
2013-12-05 12:41:00,54.9,50.4,29.86,NW,309,0.0,7.0,85,0.00,,,0.00,meteohub,2013-12-05 17:41:00,
2013-12-05 12:47:00,54.9,50.2,29.86,North,5,3.0,7.0,84,0.00,,,0.00,meteohub,2013-12-05 17:47:00,
2013-12-05 12:52:00,54.7,49.6,29.87,NNW,340,0.0,5.0,83,0.00,,,0.00,meteohub,2013-12-05 17:52:00,
2013-12-05 12:57:00,54.1,48.7,29.87,North,350,1.0,5.0,82,0.00,,,0.00,meteohub,2013-12-05 17:57:00,
2013-12-05 13:02:00,53.4,47.5,29.87,NNW,345,6.0,6.0,80,0.00,,,0.00,meteohub,2013-12-05 18:02:00,
2013-12-05 13:07:00,52.5,46.6,29.88,WNW,284,1.0,7.0,80,0.00,,,0.00,meteohub,2013-12-05 18:07:00,
2013-12-05 13:12:00,51.8,45.5,29.88,WNW,300,6.0,7.0,79,0.00,,,0.00,meteohub,2013-12-05 18:12:00,
2013-12-05 13:18:00,50.9,44.6,29.89,SW,215,0.0,7.0,79,0.00,,,0.00,meteohub,2013-12-05 18:18:00,
2013-12-05 13:23:00,50.4,44.1,29.89,North,355,3.0,9.0,79,0.00,,,0.00,meteohub,2013-12-05 18:23:00,
2013-12-05 13:28:00,49.8,43.2,29.88,NNW,348,1.0,9.0,78,0.00,,,0.00,meteohub,2013-12-05 18:28:00,
2013-12-05 13:34:00,49.5,43.2,29.88,West,280,2.0,8.0,79,0.00,,,0.00,meteohub,2013-12-05 18:34:00,
2013-12-05 13:39:00,49.3,43.3,29.88,West,281,0.0,6.0,80,0.00,,,0.00,meteohub,2013-12-05 18:39:00,
2013-12-05 13:44:00,49.1,42.6,29.88,NNW,346,3.0,6.0,78,0.00,,,0.00,meteohub,2013-12-05 18:44:00,
2013-12-05 13:50:00,48.6,41.7,29.89,NW,306,1.0,4.0,77,0.00,,,0.00,meteohub,2013-12-05 18:50:00,
2013-12-05 13:55:00,47.8,41.0,29.89,North,5,0.0,7.0,77,0.00,,,0.00,meteohub,2013-12-05 18:55:00,
2013-12-05 14:00:00,47.5,41.0,29.90,East,95,0.0,7.0,78,0.00,,,0.00,meteohub,2013-12-05 19:00:00,
2013-12-05 14:06:00,46.9,40.5,29.90,WNW,288,0.0,7.0,78,0.00,,,0.00,meteohub,2013-12-05 19:06:00,
2013-12-05 14:11:00,46.8,40.6,29.91,NNW,331,3.0,5.0,79,0.00,,,0.00,meteohub,2013-12-05 19:11:00,
2013-12-05 14:16:00,46.6,40.1,29.90,North,5,5.0,9.0,78,0.00,,,0.00,meteohub,2013-12-05 19:16:00,
2013-12-05 14:22:00,46.4,39.6,29.90,SW,234,3.0,9.0,77,0.00,,,0.00,meteohub,2013-12-05 19:22:00,
2013-12-05 14:27:00,46.2,39.0,29.90,SSW,211,0.0,6.0,76,0.00,,,0.00,meteohub,2013-12-05 19:27:00,
2013-12-05 14:32:00,46.0,38.8,29.90,WNW,284,0.0,6.0,76,0.00,,,0.00,meteohub,2013-12-05 19:32:00,
2013-12-05 14:37:00,46.0,38.8,29.91,NW,307,4.0,8.0,76,0.00,,,0.00,meteohub,2013-12-05 19:37:00,
2013-12-05 14:42:00,46.0,39.2,29.91,NW,313,0.0,8.0,77,0.00,,,0.00,meteohub,2013-12-05 19:42:00,
2013-12-05 14:47:00,45.9,39.0,29.92,NE,44,2.0,8.0,77,0.00,,,0.00,meteohub,2013-12-05 19:47:00,
2013-12-05 14:52:00,45.7,38.8,29.93,West,279,1.0,8.0,77,0.00,,,0.00,meteohub,2013-12-05 19:52:00,
2013-12-05 14:57:00,45.5,38.7,29.93,WNW,292,0.0,8.0,77,0.00,,,0.00,meteohub,2013-12-05 19:57:00,
2013-12-05 15:02:00,45.1,38.7,29.94,WNW,297,1.0,8.0,78,0.00,,,0.00,meteohub,2013-12-05 20:02:00,
2013-12-05 15:07:00,45.0,38.5,29.94,WNW,298,0.0,6.0,78,0.00,,,0.00,meteohub,2013-12-05 20:07:00,
2013-12-05 15:12:00,44.8,38.7,29.94,NNW,336,0.0,6.0,79,0.00,,,0.00,meteohub,2013-12-05 20:12:00,
2013-12-05 15:17:00,44.4,38.3,29.94,NW,313,0.0,6.0,79,0.00,,,0.00,meteohub,2013-12-05 20:17:00,
2013-12-05 15:22:00,44.2,38.1,29.94,NW,315,2.0,3.0,79,0.00,,,0.00,meteohub,2013-12-05 20:22:00,
2013-12-05 15:27:00,43.9,38.1,29.95,NW,304,0.0,5.0,80,0.00,,,0.00,meteohub,2013-12-05 20:27:00,
2013-12-05 15:32:00,43.3,38.3,29.96,NW,306,0.0,5.0,82,0.00,,,0.00,meteohub,2013-12-05 20:32:00,
2013-12-05 15:37:00,43.2,38.1,29.96,NW,313,0.0,5.0,82,0.00,,,0.00,meteohub,2013-12-05 20:37:00,
2013-12-05 15:42:00,42.8,37.9,29.96,NW,319,0.0,5.0,83,0.00,,,0.00,meteohub,2013-12-05 20:42:00,
2013-12-05 15:47:00,42.4,37.6,29.97,NNE,19,1.0,4.0,83,0.00,,,0.00,meteohub,2013-12-05 20:47:00,
2013-12-05 15:53:00,42.3,37.4,29.97,NNW,338,2.0,5.0,83,0.00,,,0.00,meteohub,2013-12-05 20:53:00,
2013-12-05 15:58:00,42.1,37.2,29.98,WNW,303,0.0,5.0,83,0.00,,,0.00,meteohub,2013-12-05 20:58:00,
2013-12-05 16:03:00,41.9,37.0,29.98,NW,304,0.0,5.0,83,0.00,,,0.00,meteohub,2013-12-05 21:03:00,
2013-12-05 16:08:00,41.7,36.7,29.98,WSW,244,0.0,4.0,82,0.00,,,0.00,meteohub,2013-12-05 21:08:00,
2013-12-05 16:14:00,41.7,36.7,29.98,WSW,251,0.0,3.0,82,0.00,,,0.00,meteohub,2013-12-05 21:14:00,
2013-12-05 16:19:00,41.7,36.7,29.99,WNW,298,0.0,8.0,82,0.00,,,0.00,meteohub,2013-12-05 21:19:00,
2013-12-05 16:25:00,41.5,36.7,29.99,NNW,339,0.0,8.0,83,0.00,,,0.00,meteohub,2013-12-05 21:25:00,
2013-12-05 16:30:00,41.5,36.1,30.00,NW,310,0.0,6.0,81,0.00,,,0.00,meteohub,2013-12-05 21:30:00,
2013-12-05 16:35:00,41.4,36.0,30.00,North,355,1.0,7.0,81,0.00,,,0.00,meteohub,2013-12-05 21:35:00,
2013-12-05 16:41:00,41.4,36.0,30.01,North,355,0.0,7.0,81,0.00,,,0.00,meteohub,2013-12-05 21:41:00,
2013-12-05 16:46:00,41.2,35.4,30.00,West,274,3.0,6.0,80,0.00,,,0.00,meteohub,2013-12-05 21:46:00,
2013-12-05 16:51:00,40.8,35.1,30.00,NNW,346,2.0,7.0,80,0.00,,,0.00,meteohub,2013-12-05 21:51:00,
2013-12-05 16:57:00,40.6,35.2,30.00,NW,321,0.0,7.0,81,0.00,,,0.00,meteohub,2013-12-05 21:57:00,
2013-12-05 17:02:00,40.5,35.1,30.00,WNW,286,1.0,7.0,81,0.00,,,0.00,meteohub,2013-12-05 22:02:00,
2013-12-05 17:07:00,40.5,35.1,30.01,WNW,300,0.0,4.0,81,0.00,,,0.00,meteohub,2013-12-05 22:07:00,
2013-12-05 17:12:00,40.3,35.2,30.00,NNW,327,0.0,4.0,82,0.00,,,0.00,meteohub,2013-12-05 22:12:00,
2013-12-05 17:17:00,40.1,35.1,30.01,West,263,0.0,3.0,82,0.00,,,0.00,meteohub,2013-12-05 22:17:00,
2013-12-05 17:22:00,39.9,34.5,30.01,NW,325,0.0,3.0,81,0.00,,,0.00,meteohub,2013-12-05 22:22:00,
2013-12-05 17:27:00,39.7,34.2,30.02,NNW,335,3.0,3.0,80,0.00,,,0.00,meteohub,2013-12-05 22:27:00,
2013-12-05 17:32:00,39.7,34.2,30.02,WSW,256,0.0,5.0,80,0.00,,,0.00,meteohub,2013-12-05 22:32:00,
2013-12-05 17:37:00,39.7,34.2,30.03,North,5,1.0,5.0,80,0.00,,,0.00,meteohub,2013-12-05 22:37:00,
2013-12-05 17:43:00,39.7,34.2,30.03,East,101,0.0,5.0,80,0.00,,,0.00,meteohub,2013-12-05 22:43:00,
2013-12-05 17:48:00,39.6,34.2,30.03,NW,319,0.0,4.0,81,0.00,,,0.00,meteohub,2013-12-05 22:48:00,
2013-12-05 17:53:00,39.6,34.0,30.03,WNW,300,2.0,4.0,80,0.00,,,0.00,meteohub,2013-12-05 22:53:00,
2013-12-05 17:59:00,39.4,34.0,30.04,NW,313,0.0,4.0,81,0.00,,,0.00,meteohub,2013-12-05 22:59:00,
2013-12-05 18:04:00,39.4,34.3,30.04,WNW,290,1.0,7.0,82,0.00,,,0.00,meteohub,2013-12-05 23:04:00,
2013-12-05 18:09:00,39.2,34.2,30.05,NW,316,0.0,8.0,82,0.00,,,0.00,meteohub,2013-12-05 23:09:00,
2013-12-05 18:15:00,39.0,34.3,30.06,WNW,285,0.0,8.0,83,0.00,,,0.00,meteohub,2013-12-05 23:15:00,
2013-12-05 18:20:00,39.0,34.0,30.06,NW,316,0.0,8.0,82,0.00,,,0.00,meteohub,2013-12-05 23:20:00,
2013-12-05 18:25:00,38.8,33.8,30.06,NW,322,0.0,8.0,82,0.00,,,0.00,meteohub,2013-12-05 23:25:00,
2013-12-05 18:31:00,38.8,33.8,30.06,SW,227,0.0,8.0,82,0.00,,,0.00,meteohub,2013-12-05 23:31:00,
2013-12-05 18:36:00,38.7,33.6,30.06,WNW,303,2.0,7.0,82,0.00,,,0.00,meteohub,2013-12-05 23:36:00,
2013-12-05 18:41:00,38.7,33.6,30.06,NNW,332,0.0,7.0,82,0.00,,,0.00,meteohub,2013-12-05 23:41:00,
2013-12-05 18:47:00,38.7,33.6,30.06,WNW,291,1.0,7.0,82,0.00,,,0.00,meteohub,2013-12-05 23:47:00,
2013-12-05 18:52:00,38.5,33.4,30.07,NW,307,0.0,7.0,82,0.00,,,0.00,meteohub,2013-12-05 23:52:00,
2013-12-05 18:57:00,38.5,33.1,30.07,NNW,339,0.0,7.0,81,0.00,,,0.00,meteohub,2013-12-05 23:57:00,
2013-12-05 19:02:00,38.5,33.1,30.07,SSE,156,1.0,5.0,81,0.00,,,0.00,meteohub,2013-12-06 00:02:00,
2013-12-05 19:07:00,38.5,33.1,30.07,West,281,4.0,4.0,81,0.00,,,0.00,meteohub,2013-12-06 00:07:00,
2013-12-05 19:12:00,38.5,33.1,30.08,WSW,252,0.0,5.0,81,0.00,,,0.00,meteohub,2013-12-06 00:12:00,
2013-12-05 19:18:00,38.3,32.9,30.07,West,259,1.0,5.0,81,0.00,,,0.00,meteohub,2013-12-06 00:18:00,
2013-12-05 19:23:00,38.3,32.7,30.06,NW,318,1.0,4.0,80,0.00,,,0.00,meteohub,2013-12-06 00:23:00,
2013-12-05 19:28:00,38.1,32.5,30.06,NW,324,0.0,4.0,80,0.00,,,0.00,meteohub,2013-12-06 00:28:00,
2013-12-05 19:34:00,38.1,32.5,30.06,NNW,348,0.0,4.0,80,0.00,,,0.00,meteohub,2013-12-06 00:34:00,
2013-12-05 19:39:00,38.1,32.5,30.06,WNW,295,0.0,4.0,80,0.00,,,0.00,meteohub,2013-12-06 00:39:00,
2013-12-05 19:44:00,38.1,32.7,30.06,WNW,296,0.0,3.0,81,0.00,,,0.00,meteohub,2013-12-06 00:44:00,
2013-12-05 19:50:00,38.1,32.7,30.07,WNW,294,0.0,3.0,81,0.00,,,0.00,meteohub,2013-12-06 00:50:00,
2013-12-05 19:55:00,38.1,32.7,30.08,WNW,294,0.0,3.0,81,0.00,,,0.00,meteohub,2013-12-06 00:55:00,
2013-12-05 20:00:00,38.1,32.7,30.07,SSW,201,0.0,3.0,81,0.00,,,0.00,meteohub,2013-12-06 01:00:00,
2013-12-05 20:06:00,37.9,32.7,30.07,WNW,288,0.0,6.0,81,0.00,,,0.00,meteohub,2013-12-06 01:06:00,
2013-12-05 20:11:00,37.9,32.7,30.07,WNW,288,0.0,6.0,81,0.00,,,0.00,meteohub,2013-12-06 01:11:00,
2013-12-05 20:16:00,37.9,32.9,30.06,WNW,288,0.0,3.0,82,0.00,,,0.00,meteohub,2013-12-06 01:16:00,
2013-12-05 20:21:00,37.8,32.7,30.07,NNW,337,0.0,1.0,82,0.00,,,0.00,meteohub,2013-12-06 01:21:00,
2013-12-05 20:27:00,37.8,33.1,30.08,NNW,337,0.0,4.0,83,0.00,,,0.00,meteohub,2013-12-06 01:27:00,
2013-12-05 20:32:00,37.8,32.7,30.08,WNW,296,0.0,4.0,82,0.00,,,0.00,meteohub,2013-12-06 01:32:00,
2013-12-05 20:38:00,37.8,33.1,30.09,WNW,298,0.0,3.0,83,0.00,,,0.00,meteohub,2013-12-06 01:38:00,
2013-12-05 20:43:00,37.8,33.1,30.09,WSW,254,0.0,6.0,83,0.00,,,0.00,meteohub,2013-12-06 01:43:00,
2013-12-05 20:48:00,37.6,32.9,30.08,North,11,0.0,6.0,83,0.00,,,0.00,meteohub,2013-12-06 01:48:00,
2013-12-05 20:54:00,37.6,32.9,30.08,North,5,0.0,7.0,83,0.00,,,0.00,meteohub,2013-12-06 01:54:00,
2013-12-05 20:59:00,37.6,33.3,30.09,WNW,300,0.0,7.0,84,0.00,,,0.00,meteohub,2013-12-06 01:59:00,
2013-12-05 21:04:00,37.2,32.5,30.07,NNW,329,0.0,7.0,83,0.00,,,0.00,meteohub,2013-12-06 02:04:00,
2013-12-05 21:10:00,37.2,32.9,30.08,NW,323,0.0,4.0,84,0.00,,,0.00,meteohub,2013-12-06 02:10:00,
2013-12-05 21:15:00,37.0,32.7,30.07,WNW,296,0.0,8.0,84,0.00,,,0.00,meteohub,2013-12-06 02:15:00,
2013-12-05 21:20:00,37.0,32.4,30.08,North,5,0.0,8.0,83,0.00,,,0.00,meteohub,2013-12-06 02:20:00,
2013-12-05 21:26:00,37.0,32.4,30.09,WSW,253,0.0,7.0,83,0.00,,,0.00,meteohub,2013-12-06 02:26:00,
2013-12-05 21:31:00,36.9,32.2,30.09,NNE,25,4.0,6.0,83,0.00,,,0.00,meteohub,2013-12-06 02:31:00,
2013-12-05 21:36:00,36.9,32.5,30.08,South,172,0.0,5.0,84,0.00,,,0.00,meteohub,2013-12-06 02:36:00,
2013-12-05 21:42:00,36.9,32.5,30.08,WNW,300,0.0,6.0,84,0.00,,,0.00,meteohub,2013-12-06 02:42:00,
2013-12-05 21:47:00,36.7,32.5,30.08,North,355,0.0,8.0,85,0.00,,,0.00,meteohub,2013-12-06 02:47:00,
2013-12-05 21:52:00,36.7,32.9,30.09,NNW,339,3.0,8.0,86,0.00,,,0.00,meteohub,2013-12-06 02:52:00,
2013-12-05 21:57:00,36.3,32.5,30.10,West,261,0.0,5.0,86,0.00,,,0.00,meteohub,2013-12-06 02:57:00,
2013-12-05 22:02:00,36.3,32.9,30.09,West,261,0.0,5.0,87,0.00,,,0.00,meteohub,2013-12-06 03:02:00,
2013-12-05 22:07:00,36.3,32.9,30.10,North,5,0.0,3.0,87,0.00,,,0.00,meteohub,2013-12-06 03:07:00,
2013-12-05 22:12:00,36.1,32.9,30.09,WNW,294,1.0,2.0,88,0.01,,,0.01,meteohub,2013-12-06 03:12:00,
2013-12-05 22:17:00,36.1,32.9,30.10,WNW,294,0.0,3.0,88,0.01,,,0.01,meteohub,2013-12-06 03:17:00,
2013-12-05 22:23:00,36.0,33.1,30.10,NW,309,0.0,3.0,89,0.01,,,0.01,meteohub,2013-12-06 03:23:00,
2013-12-05 22:28:00,35.8,32.9,30.10,NNE,17,0.0,3.0,89,0.01,,,0.01,meteohub,2013-12-06 03:28:00,
2013-12-05 22:33:00,35.6,32.9,30.10,NNE,17,0.0,3.0,90,0.01,,,0.01,meteohub,2013-12-06 03:33:00,
2013-12-05 22:39:00,35.4,32.7,30.12,NNE,17,0.0,3.0,90,0.01,,,0.01,meteohub,2013-12-06 03:39:00,
2013-12-05 22:44:00,35.4,33.1,30.12,North,355,0.0,0.0,91,0.01,,,0.01,meteohub,2013-12-06 03:44:00,
2013-12-05 22:49:00,35.2,32.9,30.12,North,355,0.0,1.0,91,0.01,,,0.01,meteohub,2013-12-06 03:49:00,
2013-12-05 22:54:00,35.1,32.7,30.13,North,355,0.0,1.0,91,0.01,,,0.01,meteohub,2013-12-06 03:54:00,
2013-12-05 23:00:00,34.9,32.5,30.14,North,5,1.0,1.0,91,0.01,,,0.01,meteohub,2013-12-06 04:00:00,
2013-12-05 23:05:00,34.5,32.2,30.14,West,260,0.0,2.0,91,0.00,,,0.01,meteohub,2013-12-06 04:05:00,
2013-12-05 23:10:00,34.3,32.0,30.14,West,260,0.0,2.0,91,0.00,,,0.01,meteohub,2013-12-06 04:10:00,
2013-12-05 23:16:00,34.0,31.6,30.14,West,260,0.0,2.0,91,0.00,,,0.01,meteohub,2013-12-06 04:16:00,
2013-12-05 23:21:00,33.6,31.5,30.14,West,260,0.0,2.0,92,0.00,,,0.01,meteohub,2013-12-06 04:21:00,
2013-12-05 23:26:00,33.4,31.3,30.13,West,260,0.0,2.0,92,0.00,,,0.01,meteohub,2013-12-06 04:26:00,
2013-12-05 23:32:00,33.3,31.1,30.13,West,260,0.0,0.0,92,0.00,,,0.01,meteohub,2013-12-06 04:32:00,
2013-12-05 23:37:00,33.3,31.5,30.13,West,260,0.0,0.0,93,0.00,,,0.01,meteohub,2013-12-06 04:37:00,
2013-12-05 23:42:00,33.1,31.3,30.14,West,260,0.0,0.0,93,0.00,,,0.01,meteohub,2013-12-06 04:42:00,
2013-12-05 23:47:00,33.1,31.3,30.14,West,263,0.0,0.0,93,0.00,,,0.01,meteohub,2013-12-06 04:47:00,
2013-12-05 23:52:00,33.1,31.3,30.15,West,263,0.0,1.0,93,0.01,,,0.02,meteohub,2013-12-06 04:52:00,
2013-12-05 23:57:00,33.1,31.5,30.14,West,263,0.0,1.0,94,0.01,,,0.02,meteohub,2013-12-06 04:57:00,